AZU2455 SBSP-SBRJ
Flight info
| Callsign | AZU2455 |
|---|---|
| Flight time | 0h 35m |
| Altitude | 25000 |
| Route | NIBRU UZ171 KEVUN |
| Aircraft | A20N/M-SDE2E3FGHIRWXY/LB1 |
Departure
| Time | 2026-05-04 21:08 |
|---|---|
| Airport | Congonhas–Deputado Freitas Nobre Airport (SBSP) |
Arrival
| Time | 2026-05-04 21:43 |
|---|---|
| Airport | Santos Dumont Airport (SBRJ) |
| Time | Latitude | Longitude | Altitude | Speed | Heading |
|---|---|---|---|---|---|
| 2026-05-04 20:52 | -23.62571 | -46.65926 | 2600 ft | 0 kts | 237° |
| 2026-05-04 21:00 | -23.62569 | -46.65923 | 2600 ft | 2 kts | 237° |
| 2026-05-04 21:00 | -23.62560 | -46.65908 | 2642 ft | 2 kts | 237° |
| 2026-05-04 21:00 | -23.62551 | -46.65893 | 2609 ft | 2 kts | 238° |
| 2026-05-04 21:01 | -23.62552 | -46.65880 | 2609 ft | 2 kts | 339° |
| 2026-05-04 21:01 | -23.62561 | -46.65874 | 2609 ft | 1 kts | 325° |
| 2026-05-04 21:04 | -23.62557 | -46.65877 | 2608 ft | 2 kts | 326° |
| 2026-05-04 21:04 | -23.62498 | -46.65895 | 2601 ft | 13 kts | 345° |
| 2026-05-04 21:04 | -23.62428 | -46.65921 | 2600 ft | 19 kts | 332° |
| 2026-05-04 21:05 | -23.62308 | -46.66003 | 2600 ft | 22 kts | 328° |
| 2026-05-04 21:05 | -23.62227 | -46.66052 | 2599 ft | 12 kts | 332° |
| 2026-05-04 21:05 | -23.62141 | -46.66110 | 2594 ft | 14 kts | 327° |
| 2026-05-04 21:05 | -23.62130 | -46.66118 | 2592 ft | 0 kts | 327° |
| 2026-05-04 21:06 | -23.62126 | -46.66121 | 2591 ft | 3 kts | 327° |
| 2026-05-04 21:06 | -23.62125 | -46.66121 | 2592 ft | 0 kts | 327° |
| 2026-05-04 21:06 | -23.62111 | -46.66130 | 2592 ft | 6 kts | 335° |
| 2026-05-04 21:07 | -23.62053 | -46.66105 | 2593 ft | 14 kts | 79° |
| 2026-05-04 21:07 | -23.62105 | -46.66037 | 2597 ft | 17 kts | 145° |
| 2026-05-04 21:07 | -23.62448 | -46.65800 | 2603 ft | 97 kts | 147° |
| 2026-05-04 21:07 | -23.63191 | -46.65281 | 2613 ft | 157 kts | 148° |
| 2026-05-04 21:08 | -23.64204 | -46.64584 | 3043 ft | 179 kts | 148° |
| 2026-05-04 21:08 | -23.65246 | -46.63858 | 4017 ft | 172 kts | 146° |
| 2026-05-04 21:08 | -23.66250 | -46.63149 | 4667 ft | 182 kts | 147° |
| 2026-05-04 21:08 | -23.67370 | -46.62352 | 5107 ft | 202 kts | 147° |
| 2026-05-04 21:09 | -23.68216 | -46.61755 | 5396 ft | 217 kts | 147° |
| 2026-05-04 21:09 | -23.69539 | -46.60800 | 5839 ft | 239 kts | 143° |
| 2026-05-04 21:09 | -23.70593 | -46.59304 | 6185 ft | 264 kts | 111° |
| 2026-05-04 21:09 | -23.71090 | -46.57288 | 6572 ft | 287 kts | 98° |
| 2026-05-04 21:10 | -23.71367 | -46.55090 | 7233 ft | 297 kts | 95° |
| 2026-05-04 21:10 | -23.71617 | -46.52839 | 8138 ft | 299 kts | 96° |
| 2026-05-04 21:10 | -23.71886 | -46.50581 | 9036 ft | 301 kts | 95° |
| 2026-05-04 21:10 | -23.71912 | -46.48295 | 9936 ft | 303 kts | 84° |
| 2026-05-04 21:11 | -23.71612 | -46.46005 | 10623 ft | 314 kts | 80° |
| 2026-05-04 21:11 | -23.71254 | -46.43599 | 10907 ft | 337 kts | 81° |
| 2026-05-04 21:11 | -23.70879 | -46.40992 | 11235 ft | 356 kts | 81° |
| 2026-05-04 21:11 | -23.70498 | -46.38303 | 11900 ft | 361 kts | 81° |
| 2026-05-04 21:12 | -23.70113 | -46.35581 | 12681 ft | 365 kts | 81° |
| 2026-05-04 21:12 | -23.69731 | -46.32884 | 13428 ft | 370 kts | 81° |
| 2026-05-04 21:12 | -23.69336 | -46.30101 | 14177 ft | 374 kts | 81° |
| 2026-05-04 21:12 | -23.68934 | -46.27268 | 14805 ft | 379 kts | 81° |
| 2026-05-04 21:13 | -23.68526 | -46.24403 | 15451 ft | 385 kts | 81° |
| 2026-05-04 21:13 | -23.68113 | -46.21502 | 16087 ft | 389 kts | 81° |
| 2026-05-04 21:13 | -23.67693 | -46.18564 | 16720 ft | 394 kts | 81° |
| 2026-05-04 21:13 | -23.67293 | -46.15769 | 17306 ft | 399 kts | 81° |
| 2026-05-04 21:14 | -23.66863 | -46.12766 | 17902 ft | 404 kts | 81° |
| 2026-05-04 21:14 | -23.66426 | -46.09719 | 18491 ft | 408 kts | 81° |
| 2026-05-04 21:14 | -23.65986 | -46.06640 | 19031 ft | 412 kts | 81° |
| 2026-05-04 21:14 | -23.65541 | -46.03533 | 19551 ft | 415 kts | 81° |
| 2026-05-04 21:15 | -23.65091 | -46.00402 | 20095 ft | 419 kts | 81° |
| 2026-05-04 21:15 | -23.64638 | -45.97247 | 20623 ft | 423 kts | 81° |
| 2026-05-04 21:15 | -23.64178 | -45.94056 | 21149 ft | 427 kts | 81° |
| 2026-05-04 21:15 | -23.63719 | -45.90875 | 21678 ft | 430 kts | 81° |
| 2026-05-04 21:16 | -23.63252 | -45.87639 | 22201 ft | 434 kts | 82° |
| 2026-05-04 21:16 | -23.62778 | -45.84368 | 22726 ft | 438 kts | 82° |
| 2026-05-04 21:16 | -23.62301 | -45.81080 | 23254 ft | 441 kts | 82° |
| 2026-05-04 21:16 | -23.61818 | -45.77749 | 23768 ft | 445 kts | 82° |
| 2026-05-04 21:17 | -23.61336 | -45.74438 | 24203 ft | 449 kts | 82° |
| 2026-05-04 21:17 | -23.60845 | -45.71064 | 24638 ft | 452 kts | 82° |
| 2026-05-04 21:17 | -23.60349 | -45.67663 | 25003 ft | 456 kts | 82° |
| 2026-05-04 21:17 | -23.59849 | -45.64242 | 25123 ft | 460 kts | 82° |
| 2026-05-04 21:18 | -23.59339 | -45.60750 | 25149 ft | 474 kts | 82° |
| 2026-05-04 21:18 | -23.58810 | -45.57139 | 25150 ft | 488 kts | 82° |
| 2026-05-04 21:18 | -23.58265 | -45.53427 | 25153 ft | 502 kts | 81° |
| 2026-05-04 21:18 | -23.57705 | -45.49620 | 25153 ft | 514 kts | 81° |
| 2026-05-04 21:19 | -23.57077 | -45.45793 | 25150 ft | 521 kts | 77° |
| 2026-05-04 21:19 | -23.56254 | -45.41946 | 25157 ft | 521 kts | 77° |
| 2026-05-04 21:19 | -23.55435 | -45.38087 | 25157 ft | 520 kts | 77° |
| 2026-05-04 21:19 | -23.54623 | -45.34248 | 25158 ft | 520 kts | 77° |
| 2026-05-04 21:20 | -23.53811 | -45.30406 | 25158 ft | 521 kts | 77° |
| 2026-05-04 21:20 | -23.52994 | -45.26554 | 25159 ft | 520 kts | 77° |
| 2026-05-04 21:20 | -23.52180 | -45.22718 | 25158 ft | 520 kts | 77° |
| 2026-05-04 21:20 | -23.51371 | -45.18914 | 25155 ft | 521 kts | 77° |
| 2026-05-04 21:21 | -23.50552 | -45.15068 | 25153 ft | 519 kts | 77° |
| 2026-05-04 21:21 | -23.49733 | -45.11226 | 25145 ft | 518 kts | 77° |
| 2026-05-04 21:21 | -23.48917 | -45.07409 | 25135 ft | 517 kts | 77° |
| 2026-05-04 21:21 | -23.48105 | -45.03609 | 25154 ft | 508 kts | 77° |
| 2026-05-04 21:22 | -23.47318 | -44.99935 | 25158 ft | 487 kts | 77° |
| 2026-05-04 21:22 | -23.46563 | -44.96414 | 25153 ft | 467 kts | 77° |
| 2026-05-04 21:22 | -23.45834 | -44.93035 | 25155 ft | 449 kts | 77° |
| 2026-05-04 21:22 | -23.45103 | -44.89726 | 25156 ft | 453 kts | 76° |
| 2026-05-04 21:23 | -23.44356 | -44.86379 | 25154 ft | 456 kts | 76° |
| 2026-05-04 21:23 | -23.43608 | -44.83028 | 25154 ft | 455 kts | 76° |
| 2026-05-04 21:23 | -23.42872 | -44.79726 | 24991 ft | 455 kts | 76° |
| 2026-05-04 21:23 | -23.42121 | -44.76358 | 24536 ft | 456 kts | 76° |
| 2026-05-04 21:24 | -23.41370 | -44.72990 | 23846 ft | 459 kts | 76° |
| 2026-05-04 21:24 | -23.40616 | -44.69606 | 22958 ft | 462 kts | 76° |
| 2026-05-04 21:24 | -23.39861 | -44.66226 | 22439 ft | 455 kts | 76° |
| 2026-05-04 21:24 | -23.39116 | -44.62892 | 21875 ft | 449 kts | 76° |
| 2026-05-04 21:25 | -23.38382 | -44.59613 | 21301 ft | 444 kts | 76° |
| 2026-05-04 21:25 | -23.37655 | -44.56364 | 20722 ft | 439 kts | 76° |
| 2026-05-04 21:25 | -23.36931 | -44.53134 | 20114 ft | 436 kts | 76° |
| 2026-05-04 21:25 | -23.36234 | -44.50028 | 19578 ft | 431 kts | 76° |
| 2026-05-04 21:26 | -23.35524 | -44.46868 | 19004 ft | 428 kts | 76° |
| 2026-05-04 21:26 | -23.34812 | -44.43728 | 18424 ft | 425 kts | 74° |
| 2026-05-04 21:26 | -23.33840 | -44.40710 | 17810 ft | 420 kts | 65° |
| 2026-05-04 21:26 | -23.32607 | -44.37857 | 17262 ft | 415 kts | 64° |
| 2026-05-04 21:27 | -23.31386 | -44.35031 | 16690 ft | 410 kts | 64° |
| 2026-05-04 21:27 | -23.30183 | -44.32234 | 16125 ft | 407 kts | 64° |
| 2026-05-04 21:27 | -23.28991 | -44.29456 | 15567 ft | 403 kts | 64° |
| 2026-05-04 21:27 | -23.27808 | -44.26703 | 14987 ft | 400 kts | 65° |
| 2026-05-04 21:28 | -23.26633 | -44.23974 | 14408 ft | 398 kts | 65° |
| 2026-05-04 21:28 | -23.25461 | -44.21253 | 13870 ft | 395 kts | 65° |
| 2026-05-04 21:28 | -23.24299 | -44.18558 | 13291 ft | 391 kts | 65° |
| 2026-05-04 21:28 | -23.23153 | -44.15897 | 12747 ft | 387 kts | 65° |
| 2026-05-04 21:29 | -23.22015 | -44.13259 | 12209 ft | 383 kts | 65° |
| 2026-05-04 21:29 | -23.20889 | -44.10649 | 11667 ft | 380 kts | 65° |
| 2026-05-04 21:29 | -23.19785 | -44.08092 | 11150 ft | 377 kts | 65° |
| 2026-05-04 21:29 | -23.18653 | -44.05548 | 10812 ft | 368 kts | 64° |
| 2026-05-04 21:30 | -23.17523 | -44.03105 | 10659 ft | 354 kts | 63° |
| 2026-05-04 21:30 | -23.16432 | -44.00765 | 10533 ft | 340 kts | 63° |
| 2026-05-04 21:30 | -23.15388 | -43.98507 | 10409 ft | 327 kts | 64° |
| 2026-05-04 21:30 | -23.14431 | -43.96314 | 10254 ft | 316 kts | 65° |
| 2026-05-04 21:31 | -23.12647 | -43.92082 | 9880 ft | 301 kts | 65° |
| 2026-05-04 21:31 | -23.11764 | -43.89994 | 9704 ft | 307 kts | 65° |
| 2026-05-04 21:31 | -23.10863 | -43.87877 | 9542 ft | 310 kts | 65° |
| 2026-05-04 21:32 | -23.09958 | -43.85757 | 9370 ft | 307 kts | 65° |
| 2026-05-04 21:32 | -23.09061 | -43.83662 | 9212 ft | 304 kts | 65° |
| 2026-05-04 21:32 | -23.08170 | -43.81582 | 9044 ft | 304 kts | 65° |
| 2026-05-04 21:32 | -23.07288 | -43.79524 | 8887 ft | 303 kts | 65° |
| 2026-05-04 21:33 | -23.06388 | -43.77428 | 8714 ft | 302 kts | 65° |
| 2026-05-04 21:33 | -23.05501 | -43.75360 | 8557 ft | 301 kts | 65° |
| 2026-05-04 21:33 | -23.04634 | -43.73339 | 8398 ft | 299 kts | 64° |
| 2026-05-04 21:33 | -23.03758 | -43.71299 | 8232 ft | 298 kts | 64° |
| 2026-05-04 21:34 | -23.02881 | -43.69258 | 8124 ft | 297 kts | 64° |
| 2026-05-04 21:34 | -23.02002 | -43.67236 | 7918 ft | 297 kts | 64° |
| 2026-05-04 21:34 | -23.01111 | -43.65204 | 7543 ft | 298 kts | 64° |
| 2026-05-04 21:34 | -23.00808 | -43.64514 | 7412 ft | 298 kts | 64° |
| 2026-05-04 21:35 | -23.00471 | -43.63747 | 7295 ft | 296 kts | 64° |
| 2026-05-04 21:35 | -22.99652 | -43.61879 | 7163 ft | 289 kts | 64° |
| 2026-05-04 21:35 | -22.98778 | -43.59892 | 7053 ft | 294 kts | 64° |
| 2026-05-04 21:35 | -22.97909 | -43.57918 | 6909 ft | 292 kts | 64° |
| 2026-05-04 21:36 | -22.97030 | -43.55923 | 6539 ft | 295 kts | 64° |
| 2026-05-04 21:36 | -22.96151 | -43.53922 | 6194 ft | 292 kts | 63° |
| 2026-05-04 21:36 | -22.95287 | -43.51956 | 6036 ft | 283 kts | 63° |
| 2026-05-04 21:36 | -22.94474 | -43.50099 | 5967 ft | 263 kts | 64° |
| 2026-05-04 21:37 | -22.93730 | -43.48350 | 5846 ft | 248 kts | 64° |
| 2026-05-04 21:37 | -22.93024 | -43.46662 | 5502 ft | 243 kts | 64° |
| 2026-05-04 21:37 | -22.92320 | -43.44990 | 5026 ft | 251 kts | 63° |
| 2026-05-04 21:37 | -22.91604 | -43.43293 | 4855 ft | 244 kts | 63° |
| 2026-05-04 21:38 | -22.90909 | -43.41649 | 4766 ft | 234 kts | 63° |
| 2026-05-04 21:38 | -22.90237 | -43.40063 | 4696 ft | 236 kts | 63° |
| 2026-05-04 21:38 | -22.89550 | -43.38444 | 4596 ft | 234 kts | 63° |
| 2026-05-04 21:38 | -22.88868 | -43.36840 | 4335 ft | 233 kts | 63° |
| 2026-05-04 21:39 | -22.88211 | -43.35224 | 3763 ft | 237 kts | 69° |
| 2026-05-04 21:39 | -22.87762 | -43.33495 | 3351 ft | 233 kts | 73° |
| 2026-05-04 21:39 | -22.87354 | -43.31863 | 3227 ft | 216 kts | 73° |
| 2026-05-04 21:39 | -22.86967 | -43.30348 | 2955 ft | 210 kts | 73° |
| 2026-05-04 21:40 | -22.86719 | -43.28784 | 2499 ft | 211 kts | 88° |
| 2026-05-04 21:40 | -22.86746 | -43.27241 | 2294 ft | 201 kts | 90° |
| 2026-05-04 21:40 | -22.86765 | -43.25721 | 1873 ft | 203 kts | 89° |
| 2026-05-04 21:40 | -22.86771 | -43.24249 | 1795 ft | 182 kts | 89° |
| 2026-05-04 21:41 | -22.86775 | -43.22978 | 1741 ft | 155 kts | 89° |
| 2026-05-04 21:41 | -22.86779 | -43.21876 | 1557 ft | 141 kts | 89° |
| 2026-05-04 21:41 | -22.86780 | -43.20822 | 1288 ft | 136 kts | 89° |
| 2026-05-04 21:41 | -22.86780 | -43.19772 | 1103 ft | 136 kts | 89° |
| 2026-05-04 21:42 | -22.86782 | -43.18782 | 887 ft | 130 kts | 90° |
| 2026-05-04 21:42 | -22.86918 | -43.17849 | 664 ft | 128 kts | 110° |
| 2026-05-04 21:42 | -22.87430 | -43.17028 | 469 ft | 131 kts | 135° |
| 2026-05-04 21:42 | -22.88225 | -43.16508 | 355 ft | 136 kts | 159° |
| 2026-05-04 21:43 | -22.89160 | -43.16375 | 190 ft | 135 kts | 175° |
| 2026-05-04 21:43 | -22.90076 | -43.16337 | 88 ft | 130 kts | 174° |
| 2026-05-04 21:43 | -22.90993 | -43.16280 | 24 ft | 122 kts | 177° |
| 2026-05-04 21:43 | -22.91465 | -43.16255 | 20 ft | 28 kts | 174° |
| 2026-05-04 21:44 | -22.91591 | -43.16261 | 20 ft | 11 kts | 223° |
| 2026-05-04 21:44 | -22.91551 | -43.16352 | 20 ft | 19 kts | 316° |
| 2026-05-04 21:44 | -22.91476 | -43.16428 | 21 ft | 13 kts | 317° |
| 2026-05-04 21:44 | -22.91471 | -43.16433 | 21 ft | 0 kts | 317° |
| 2026-05-04 21:45 | -22.91469 | -43.16434 | 21 ft | 1 kts | 317° |
| 2026-05-04 21:46 | -22.91441 | -43.16463 | 23 ft | 11 kts | 317° |
| 2026-05-04 21:46 | -22.91373 | -43.16501 | 22 ft | 16 kts | 354° |
| 2026-05-04 21:46 | -22.91319 | -43.16532 | 22 ft | 8 kts | 264° |
| 2026-05-04 21:46 | -22.91319 | -43.16572 | 22 ft | 3 kts | 267° |
| 2026-05-04 21:47 | -22.91319 | -43.16576 | 22 ft | 0 kts | 268° |